Hauptseite
METAR-TAF:

METAR-TAF

Flughäfen :

Iguaçu, Argentinien

Breite: 25-44S, Länge: 054-28W, Höhe: 270 m

Beobachtung

Neuester Wetterbericht von vor 1 Stunde und 14 Minuten, um 23:00 UTC
Wind 3 kt aus Südwest
Temperatur 22°C
Luftfeuchtigkeit 60%
Luftdruck 1010 hPa
Sichtweite 10 km oder mehr
keine Wolken unter 1500 m und keine Kumulonimbus oder Gewitterwolken

METAR: SARI 192300Z 23003KT CAVOK 22/14 Q1010

Zeit: 21:14 (00:14 UTC)

Prognose

Neuester Wetterbericht von vor 7 Stunden und 14 Minuten, um 17:00 UTC
Gültige Prognose vom 19 um 18 UTC bis 20 um 18 UTC
Wind 10 kt aus Süd
Sichtweite 10 km oder mehr
keine Wolken unter 1500 m und keine Kumulonimbus oder Gewitterwolken

TAF: SARI 191700Z 1918/2018 18010KT CAVOK TX30/2018Z TN15/2009Z

Wetterbeobachtungen und Prognosen von mehr als 4000 Flughäfen (METAR und TAF Bericht).

Die verfügbaren Stationen werden durch gelbe und rote Markierungen auf der Karte dargestellt.

Führen Sie die Maus auf sie, um den Namen der Station zu sehen.

Darauf klicken, um die Beobachtung von Wetterbeobachtungen und Prognosen zu sehen.

Um die Karte zu ändern : klicken Sie auf den grünen Tasten mit einem schwarzen Kreuz Zum Vergrößern, auf den grünen Button mit einem Gedankenstrich zu verkleinern, oder auf die grünen Pfeile für benachbarte Karten.


METAR-TAF: